sensor_id;sensor_type;location;lat;lon;timestamp;P1;durP1;ratioP1;P2;durP2;ratioP2
26951;SDS011;14507;52.418;13.398;2023-05-07T00:02:06;26.95;;;16.05;;
26951;SDS011;14507;52.418;13.398;2023-05-07T00:04:32;24.23;;;16.08;;
26951;SDS011;14507;52.418;13.398;2023-05-07T00:07:02;25.20;;;15.52;;
26951;SDS011;14507;52.418;13.398;2023-05-07T00:09:27;26.83;;;15.45;;
26951;SDS011;14507;52.418;13.398;2023-05-07T00:11:53;29.23;;;16.30;;
26951;SDS011;14507;52.418;13.398;2023-05-07T00:14:19;24.48;;;15.52;;
26951;SDS011;14507;52.418;13.398;2023-05-07T00:16:45;25.30;;;15.45;;
26951;SDS011;14507;52.418;13.398;2023-05-07T00:19:11;25.35;;;14.63;;
26951;SDS011;14507;52.418;13.398;2023-05-07T00:21:37;24.33;;;14.48;;
26951;SDS011;14507;52.418;13.398;2023-05-07T00:24:03;23.65;;;14.40;;
26951;SDS011;14507;52.418;13.398;2023-05-07T00:26:29;24.88;;;15.52;;
26951;SDS011;14507;52.418;13.398;2023-05-07T00:28:54;23.40;;;14.52;;
26951;SDS011;14507;52.418;13.398;2023-05-07T00:31:20;23.10;;;14.35;;
26951;SDS011;14507;52.418;13.398;2023-05-07T00:33:45;19.23;;;12.63;;
26951;SDS011;14507;52.418;13.398;2023-05-07T00:36:11;17.65;;;12.32;;
26951;SDS011;14507;52.418;13.398;2023-05-07T00:38:37;23.85;;;13.27;;
26951;SDS011;14507;52.418;13.398;2023-05-07T00:41:03;23.65;;;12.65;;
26951;SDS011;14507;52.418;13.398;2023-05-07T00:43:28;19.92;;;12.32;;
26951;SDS011;14507;52.418;13.398;2023-05-07T00:45:54;21.23;;;13.55;;
26951;SDS011;14507;52.418;13.398;2023-05-07T00:48:20;21.38;;;11.85;;
26951;SDS011;14507;52.418;13.398;2023-05-07T00:50:46;24.10;;;12.73;;
26951;SDS011;14507;52.418;13.398;2023-05-07T00:53:13;19.25;;;12.13;;
26951;SDS011;14507;52.418;13.398;2023-05-07T00:55:39;22.25;;;12.68;;
26951;SDS011;14507;52.418;13.398;2023-05-07T00:58:05;18.02;;;11.32;;
26951;SDS011;14507;52.418;13.398;2023-05-07T01:00:31;18.85;;;11.82;;
26951;SDS011;14507;52.418;13.398;2023-05-07T01:02:57;17.13;;;10.32;;
26951;SDS011;14507;52.418;13.398;2023-05-07T01:05:23;17.58;;;10.98;;
26951;SDS011;14507;52.418;13.398;2023-05-07T01:07:50;19.38;;;10.43;;
26951;SDS011;14507;52.418;13.398;2023-05-07T01:10:18;16.65;;;10.07;;
26951;SDS011;14507;52.418;13.398;2023-05-07T01:12:44;15.90;;;10.35;;
26951;SDS011;14507;52.418;13.398;2023-05-07T01:15:12;13.93;;;9.80;;
26951;SDS011;14507;52.418;13.398;2023-05-07T01:17:39;17.63;;;10.52;;
26951;SDS011;14507;52.418;13.398;2023-05-07T01:20:07;15.82;;;10.23;;
26951;SDS011;14507;52.418;13.398;2023-05-07T01:22:35;16.92;;;10.25;;
26951;SDS011;14507;52.418;13.398;2023-05-07T01:25:03;19.60;;;10.38;;
26951;SDS011;14507;52.418;13.398;2023-05-07T01:27:30;17.45;;;11.07;;
26951;SDS011;14507;52.418;13.398;2023-05-07T01:29:55;14.80;;;10.63;;
26951;SDS011;14507;52.418;13.398;2023-05-07T01:32:23;20.48;;;11.52;;
26951;SDS011;14507;52.418;13.398;2023-05-07T01:34:54;17.10;;;11.50;;
26951;SDS011;14507;52.418;13.398;2023-05-07T01:37:22;18.55;;;12.25;;
26951;SDS011;14507;52.418;13.398;2023-05-07T01:39:49;19.63;;;11.52;;
26951;SDS011;14507;52.418;13.398;2023-05-07T01:42:15;18.63;;;11.27;;
26951;SDS011;14507;52.418;13.398;2023-05-07T01:44:41;16.02;;;11.35;;
26951;SDS011;14507;52.418;13.398;2023-05-07T01:47:06;21.30;;;12.00;;
26951;SDS011;14507;52.418;13.398;2023-05-07T01:49:33;19.08;;;11.52;;
26951;SDS011;14507;52.418;13.398;2023-05-07T01:51:59;22.58;;;11.40;;
26951;SDS011;14507;52.418;13.398;2023-05-07T01:54:26;18.48;;;11.68;;
26951;SDS011;14507;52.418;13.398;2023-05-07T01:56:56;17.85;;;11.18;;
26951;SDS011;14507;52.418;13.398;2023-05-07T01:59:22;16.95;;;11.23;;
26951;SDS011;14507;52.418;13.398;2023-05-07T02:01:48;18.98;;;11.15;;
26951;SDS011;14507;52.418;13.398;2023-05-07T02:04:13;18.63;;;11.60;;
26951;SDS011;14507;52.418;13.398;2023-05-07T02:06:39;20.92;;;11.73;;
26951;SDS011;14507;52.418;13.398;2023-05-07T02:09:05;20.35;;;11.25;;
26951;SDS011;14507;52.418;13.398;2023-05-07T02:11:31;16.42;;;10.90;;
26951;SDS011;14507;52.418;13.398;2023-05-07T02:13:56;16.67;;;11.27;;
26951;SDS011;14507;52.418;13.398;2023-05-07T02:16:22;23.02;;;11.90;;
26951;SDS011;14507;52.418;13.398;2023-05-07T02:18:48;18.85;;;12.25;;
26951;SDS011;14507;52.418;13.398;2023-05-07T02:21:14;21.02;;;12.57;;
26951;SDS011;14507;52.418;13.398;2023-05-07T02:23:40;19.30;;;11.88;;
26951;SDS011;14507;52.418;13.398;2023-05-07T02:26:06;18.40;;;11.57;;
26951;SDS011;14507;52.418;13.398;2023-05-07T02:28:31;18.42;;;12.07;;
26951;SDS011;14507;52.418;13.398;2023-05-07T02:30:57;23.27;;;11.85;;
26951;SDS011;14507;52.418;13.398;2023-05-07T02:33:26;18.13;;;11.75;;
26951;SDS011;14507;52.418;13.398;2023-05-07T02:35:51;21.35;;;11.50;;
26951;SDS011;14507;52.418;13.398;2023-05-07T02:38:17;16.40;;;10.65;;
26951;SDS011;14507;52.418;13.398;2023-05-07T02:40:43;18.63;;;10.88;;
26951;SDS011;14507;52.418;13.398;2023-05-07T02:43:09;18.48;;;10.35;;
26951;SDS011;14507;52.418;13.398;2023-05-07T02:45:34;18.05;;;11.10;;
26951;SDS011;14507;52.418;13.398;2023-05-07T02:48:02;22.42;;;11.98;;
26951;SDS011;14507;52.418;13.398;2023-05-07T02:50:28;26.40;;;11.52;;
26951;SDS011;14507;52.418;13.398;2023-05-07T02:52:54;24.23;;;12.77;;
26951;SDS011;14507;52.418;13.398;2023-05-07T02:55:20;20.27;;;11.65;;
26951;SDS011;14507;52.418;13.398;2023-05-07T02:57:46;25.58;;;11.68;;
26951;SDS011;14507;52.418;13.398;2023-05-07T03:00:16;18.35;;;10.88;;
26951;SDS011;14507;52.418;13.398;2023-05-07T03:02:43;20.17;;;11.52;;
26951;SDS011;14507;52.418;13.398;2023-05-07T03:05:09;24.48;;;11.70;;
26951;SDS011;14507;52.418;13.398;2023-05-07T03:07:36;25.83;;;12.00;;
26951;SDS011;14507;52.418;13.398;2023-05-07T03:10:02;17.90;;;11.25;;
26951;SDS011;14507;52.418;13.398;2023-05-07T03:12:28;19.95;;;11.77;;
26951;SDS011;14507;52.418;13.398;2023-05-07T03:14:54;17.80;;;10.60;;
26951;SDS011;14507;52.418;13.398;2023-05-07T03:17:20;21.60;;;11.02;;
26951;SDS011;14507;52.418;13.398;2023-05-07T03:19:46;20.15;;;10.60;;
26951;SDS011;14507;52.418;13.398;2023-05-07T03:22:12;17.92;;;11.57;;
26951;SDS011;14507;52.418;13.398;2023-05-07T03:24:37;19.35;;;12.00;;
26951;SDS011;14507;52.418;13.398;2023-05-07T03:27:03;17.63;;;11.55;;
26951;SDS011;14507;52.418;13.398;2023-05-07T03:29:29;15.43;;;10.82;;
26951;SDS011;14507;52.418;13.398;2023-05-07T03:31:55;16.48;;;11.45;;
26951;SDS011;14507;52.418;13.398;2023-05-07T03:34:20;17.50;;;10.85;;
26951;SDS011;14507;52.418;13.398;2023-05-07T03:36:50;18.35;;;11.52;;
26951;SDS011;14507;52.418;13.398;2023-05-07T03:39:15;18.38;;;11.85;;
26951;SDS011;14507;52.418;13.398;2023-05-07T03:41:41;18.25;;;12.57;;
26951;SDS011;14507;52.418;13.398;2023-05-07T03:44:07;16.33;;;11.57;;
26951;SDS011;14507;52.418;13.398;2023-05-07T03:46:33;22.38;;;13.13;;
26951;SDS011;14507;52.418;13.398;2023-05-07T03:48:59;21.63;;;12.40;;
26951;SDS011;14507;52.418;13.398;2023-05-07T03:51:25;17.17;;;11.98;;
26951;SDS011;14507;52.418;13.398;2023-05-07T03:53:51;18.88;;;12.20;;
26951;SDS011;14507;52.418;13.398;2023-05-07T03:56:22;18.27;;;11.82;;
26951;SDS011;14507;52.418;13.398;2023-05-07T03:58:48;19.98;;;11.98;;
26951;SDS011;14507;52.418;13.398;2023-05-07T04:01:13;19.45;;;12.13;;
26951;SDS011;14507;52.418;13.398;2023-05-07T04:03:39;22.08;;;11.65;;
26951;SDS011;14507;52.418;13.398;2023-05-07T04:06:05;19.15;;;11.73;;
26951;SDS011;14507;52.418;13.398;2023-05-07T04:08:31;22.23;;;12.43;;
26951;SDS011;14507;52.418;13.398;2023-05-07T04:10:56;17.10;;;12.05;;
26951;SDS011;14507;52.418;13.398;2023-05-07T04:13:23;23.85;;;11.88;;
26951;SDS011;14507;52.418;13.398;2023-05-07T04:15:49;17.48;;;12.32;;
26951;SDS011;14507;52.418;13.398;2023-05-07T04:18:15;18.17;;;12.45;;
26951;SDS011;14507;52.418;13.398;2023-05-07T04:20:40;20.63;;;12.50;;
26951;SDS011;14507;52.418;13.398;2023-05-07T04:23:06;21.90;;;13.23;;
26951;SDS011;14507;52.418;13.398;2023-05-07T04:25:32;20.25;;;11.95;;
26951;SDS011;14507;52.418;13.398;2023-05-07T04:27:58;16.50;;;11.32;;
26951;SDS011;14507;52.418;13.398;2023-05-07T04:30:24;22.00;;;11.98;;
26951;SDS011;14507;52.418;13.398;2023-05-07T04:32:50;16.85;;;11.30;;
26951;SDS011;14507;52.418;13.398;2023-05-07T04:35:16;23.88;;;11.30;;
26951;SDS011;14507;52.418;13.398;2023-05-07T04:37:42;18.50;;;12.73;;
26951;SDS011;14507;52.418;13.398;2023-05-07T04:40:08;19.08;;;11.68;;
26951;SDS011;14507;52.418;13.398;2023-05-07T04:42:34;24.52;;;11.52;;
26951;SDS011;14507;52.418;13.398;2023-05-07T04:45:01;18.63;;;10.90;;
26951;SDS011;14507;52.418;13.398;2023-05-07T04:47:27;17.02;;;10.82;;
26951;SDS011;14507;52.418;13.398;2023-05-07T04:49:52;19.42;;;10.85;;
26951;SDS011;14507;52.418;13.398;2023-05-07T04:52:18;17.95;;;11.35;;
26951;SDS011;14507;52.418;13.398;2023-05-07T04:54:43;17.25;;;11.05;;
26951;SDS011;14507;52.418;13.398;2023-05-07T04:57:09;15.82;;;10.73;;
26951;SDS011;14507;52.418;13.398;2023-05-07T04:59:35;17.23;;;10.63;;
26951;SDS011;14507;52.418;13.398;2023-05-07T05:02:00;14.77;;;10.10;;
26951;SDS011;14507;52.418;13.398;2023-05-07T05:04:26;14.05;;;10.18;;
26951;SDS011;14507;52.418;13.398;2023-05-07T05:06:52;14.85;;;9.07;;
26951;SDS011;14507;52.418;13.398;2023-05-07T05:09:17;17.30;;;10.02;;
26951;SDS011;14507;52.418;13.398;2023-05-07T05:11:43;15.63;;;10.60;;
26951;SDS011;14507;52.418;13.398;2023-05-07T05:14:09;19.08;;;10.90;;
26951;SDS011;14507;52.418;13.398;2023-05-07T05:16:35;15.52;;;10.23;;
26951;SDS011;14507;52.418;13.398;2023-05-07T05:19:01;17.60;;;9.63;;
26951;SDS011;14507;52.418;13.398;2023-05-07T05:21:27;15.73;;;10.52;;
26951;SDS011;14507;52.418;13.398;2023-05-07T05:23:52;15.68;;;9.00;;
26951;SDS011;14507;52.418;13.398;2023-05-07T05:26:18;16.25;;;8.32;;
26951;SDS011;14507;52.418;13.398;2023-05-07T05:28:46;14.35;;;8.95;;
26951;SDS011;14507;52.418;13.398;2023-05-07T05:31:11;15.07;;;8.65;;
26951;SDS011;14507;52.418;13.398;2023-05-07T05:33:37;14.05;;;8.90;;
26951;SDS011;14507;52.418;13.398;2023-05-07T05:36:03;14.25;;;8.00;;
26951;SDS011;14507;52.418;13.398;2023-05-07T05:38:29;14.70;;;8.13;;
26951;SDS011;14507;52.418;13.398;2023-05-07T05:40:55;16.83;;;7.90;;
26951;SDS011;14507;52.418;13.398;2023-05-07T05:43:20;13.90;;;8.18;;
26951;SDS011;14507;52.418;13.398;2023-05-07T05:45:46;11.88;;;7.70;;
26951;SDS011;14507;52.418;13.398;2023-05-07T05:48:11;11.85;;;7.13;;
26951;SDS011;14507;52.418;13.398;2023-05-07T05:50:37;14.25;;;7.57;;
26951;SDS011;14507;52.418;13.398;2023-05-07T05:53:03;10.85;;;7.50;;
26951;SDS011;14507;52.418;13.398;2023-05-07T05:55:29;12.90;;;7.63;;
26951;SDS011;14507;52.418;13.398;2023-05-07T05:57:57;12.15;;;7.75;;
26951;SDS011;14507;52.418;13.398;2023-05-07T06:00:23;16.10;;;7.80;;
26951;SDS011;14507;52.418;13.398;2023-05-07T06:02:49;12.27;;;7.40;;
26951;SDS011;14507;52.418;13.398;2023-05-07T06:05:14;12.93;;;6.95;;
26951;SDS011;14507;52.418;13.398;2023-05-07T06:07:40;11.82;;;6.15;;
26951;SDS011;14507;52.418;13.398;2023-05-07T06:10:06;12.45;;;6.15;;
26951;SDS011;14507;52.418;13.398;2023-05-07T06:12:32;10.27;;;6.55;;
26951;SDS011;14507;52.418;13.398;2023-05-07T06:14:58;10.13;;;6.47;;
26951;SDS011;14507;52.418;13.398;2023-05-07T06:17:23;10.25;;;5.68;;
26951;SDS011;14507;52.418;13.398;2023-05-07T06:19:49;10.93;;;6.15;;
26951;SDS011;14507;52.418;13.398;2023-05-07T06:22:15;9.90;;;6.53;;
26951;SDS011;14507;52.418;13.398;2023-05-07T06:24:40;11.15;;;6.50;;
26951;SDS011;14507;52.418;13.398;2023-05-07T06:27:06;12.55;;;6.05;;
26951;SDS011;14507;52.418;13.398;2023-05-07T06:29:31;12.73;;;7.00;;
26951;SDS011;14507;52.418;13.398;2023-05-07T06:32:08;13.43;;;6.95;;
26951;SDS011;14507;52.418;13.398;2023-05-07T06:34:34;11.90;;;6.88;;
26951;SDS011;14507;52.418;13.398;2023-05-07T06:37:00;13.20;;;7.28;;
26951;SDS011;14507;52.418;13.398;2023-05-07T06:39:26;14.23;;;6.90;;
26951;SDS011;14507;52.418;13.398;2023-05-07T06:41:51;12.40;;;7.07;;
26951;SDS011;14507;52.418;13.398;2023-05-07T06:44:17;14.82;;;7.40;;
26951;SDS011;14507;52.418;13.398;2023-05-07T06:46:43;14.27;;;7.60;;
26951;SDS011;14507;52.418;13.398;2023-05-07T06:49:08;11.70;;;7.70;;
26951;SDS011;14507;52.418;13.398;2023-05-07T06:51:34;11.40;;;7.18;;
26951;SDS011;14507;52.418;13.398;2023-05-07T06:53:59;13.68;;;6.97;;
26951;SDS011;14507;52.418;13.398;2023-05-07T06:56:25;11.75;;;7.13;;
26951;SDS011;14507;52.418;13.398;2023-05-07T06:58:51;12.85;;;7.63;;
26951;SDS011;14507;52.418;13.398;2023-05-07T07:01:16;12.85;;;8.07;;
26951;SDS011;14507;52.418;13.398;2023-05-07T07:03:42;17.98;;;7.68;;
26951;SDS011;14507;52.418;13.398;2023-05-07T07:06:07;13.77;;;7.53;;
26951;SDS011;14507;52.418;13.398;2023-05-07T07:08:33;14.57;;;7.70;;
26951;SDS011;14507;52.418;13.398;2023-05-07T07:10:59;10.15;;;6.45;;
26951;SDS011;14507;52.418;13.398;2023-05-07T07:13:25;15.00;;;7.50;;
26951;SDS011;14507;52.418;13.398;2023-05-07T07:15:51;12.85;;;7.43;;
26951;SDS011;14507;52.418;13.398;2023-05-07T07:18:18;12.13;;;7.75;;
26951;SDS011;14507;52.418;13.398;2023-05-07T07:20:43;11.20;;;7.00;;
26951;SDS011;14507;52.418;13.398;2023-05-07T07:23:09;12.23;;;7.03;;
26951;SDS011;14507;52.418;13.398;2023-05-07T07:25:35;12.27;;;7.03;;
26951;SDS011;14507;52.418;13.398;2023-05-07T07:28:01;12.52;;;6.47;;
26951;SDS011;14507;52.418;13.398;2023-05-07T07:30:26;11.98;;;6.43;;
26951;SDS011;14507;52.418;13.398;2023-05-07T07:32:52;12.65;;;5.93;;
26951;SDS011;14507;52.418;13.398;2023-05-07T07:35:18;8.38;;;5.45;;
26951;SDS011;14507;52.418;13.398;2023-05-07T07:37:43;9.68;;;5.75;;
26951;SDS011;14507;52.418;13.398;2023-05-07T07:40:09;11.55;;;5.82;;
26951;SDS011;14507;52.418;13.398;2023-05-07T07:42:36;13.27;;;5.30;;
26951;SDS011;14507;52.418;13.398;2023-05-07T07:45:02;9.43;;;5.15;;
26951;SDS011;14507;52.418;13.398;2023-05-07T07:47:28;7.35;;;5.00;;
26951;SDS011;14507;52.418;13.398;2023-05-07T07:49:53;7.40;;;4.15;;
26951;SDS011;14507;52.418;13.398;2023-05-07T07:52:19;6.75;;;3.95;;
26951;SDS011;14507;52.418;13.398;2023-05-07T07:54:45;6.55;;;3.85;;
26951;SDS011;14507;52.418;13.398;2023-05-07T07:57:10;10.05;;;4.32;;
26951;SDS011;14507;52.418;13.398;2023-05-07T07:59:36;8.70;;;4.75;;
26951;SDS011;14507;52.418;13.398;2023-05-07T08:02:02;7.38;;;4.72;;
26951;SDS011;14507;52.418;13.398;2023-05-07T08:04:27;8.18;;;4.25;;
26951;SDS011;14507;52.418;13.398;2023-05-07T08:06:53;7.20;;;3.88;;
26951;SDS011;14507;52.418;13.398;2023-05-07T08:09:19;9.23;;;3.70;;
26951;SDS011;14507;52.418;13.398;2023-05-07T08:11:45;9.00;;;3.38;;
26951;SDS011;14507;52.418;13.398;2023-05-07T08:14:11;8.93;;;3.67;;
26951;SDS011;14507;52.418;13.398;2023-05-07T08:16:36;6.63;;;4.07;;
26951;SDS011;14507;52.418;13.398;2023-05-07T08:19:02;8.30;;;3.95;;
26951;SDS011;14507;52.418;13.398;2023-05-07T08:21:28;7.55;;;3.90;;
26951;SDS011;14507;52.418;13.398;2023-05-07T08:23:54;5.68;;;3.50;;
26951;SDS011;14507;52.418;13.398;2023-05-07T08:26:19;6.63;;;3.40;;
26951;SDS011;14507;52.418;13.398;2023-05-07T08:28:45;7.82;;;3.70;;
26951;SDS011;14507;52.418;13.398;2023-05-07T08:31:11;8.43;;;3.38;;
26951;SDS011;14507;52.418;13.398;2023-05-07T08:33:36;17.85;;;3.60;;
26951;SDS011;14507;52.418;13.398;2023-05-07T08:36:03;5.80;;;3.38;;
26951;SDS011;14507;52.418;13.398;2023-05-07T08:38:29;7.80;;;3.45;;
26951;SDS011;14507;52.418;13.398;2023-05-07T08:40:56;8.32;;;3.42;;
26951;SDS011;14507;52.418;13.398;2023-05-07T08:43:21;5.80;;;2.92;;
26951;SDS011;14507;52.418;13.398;2023-05-07T08:45:51;5.97;;;3.45;;
26951;SDS011;14507;52.418;13.398;2023-05-07T08:48:20;6.03;;;3.08;;
26951;SDS011;14507;52.418;13.398;2023-05-07T08:50:50;8.70;;;3.65;;
26951;SDS011;14507;52.418;13.398;2023-05-07T08:53:16;4.28;;;2.65;;
26951;SDS011;14507;52.418;13.398;2023-05-07T08:55:42;5.55;;;2.80;;
26951;SDS011;14507;52.418;13.398;2023-05-07T08:58:08;9.25;;;3.10;;
26951;SDS011;14507;52.418;13.398;2023-05-07T09:00:35;5.95;;;2.53;;
26951;SDS011;14507;52.418;13.398;2023-05-07T09:03:02;5.63;;;2.97;;
26951;SDS011;14507;52.418;13.398;2023-05-07T09:05:27;4.93;;;2.67;;
26951;SDS011;14507;52.418;13.398;2023-05-07T09:07:53;7.82;;;2.70;;
26951;SDS011;14507;52.418;13.398;2023-05-07T09:10:20;7.95;;;2.28;;
26951;SDS011;14507;52.418;13.398;2023-05-07T09:12:46;6.70;;;2.40;;
26951;SDS011;14507;52.418;13.398;2023-05-07T09:15:13;6.13;;;2.60;;
26951;SDS011;14507;52.418;13.398;2023-05-07T09:17:38;4.32;;;2.38;;
26951;SDS011;14507;52.418;13.398;2023-05-07T09:20:06;5.75;;;2.47;;
26951;SDS011;14507;52.418;13.398;2023-05-07T09:22:32;5.65;;;2.40;;
26951;SDS011;14507;52.418;13.398;2023-05-07T09:24:58;5.03;;;2.22;;
26951;SDS011;14507;52.418;13.398;2023-05-07T09:27:24;5.00;;;2.25;;
26951;SDS011;14507;52.418;13.398;2023-05-07T09:29:51;3.97;;;2.47;;
26951;SDS011;14507;52.418;13.398;2023-05-07T09:32:17;3.70;;;2.38;;
26951;SDS011;14507;52.418;13.398;2023-05-07T09:34:42;5.25;;;2.53;;
26951;SDS011;14507;52.418;13.398;2023-05-07T09:37:08;4.10;;;2.17;;
26951;SDS011;14507;52.418;13.398;2023-05-07T09:39:41;5.03;;;2.47;;
26951;SDS011;14507;52.418;13.398;2023-05-07T09:42:07;4.97;;;2.45;;
26951;SDS011;14507;52.418;13.398;2023-05-07T09:44:34;6.20;;;2.33;;
26951;SDS011;14507;52.418;13.398;2023-05-07T09:47:00;4.72;;;1.98;;
26951;SDS011;14507;52.418;13.398;2023-05-07T09:49:33;5.57;;;2.28;;
26951;SDS011;14507;52.418;13.398;2023-05-07T09:52:04;5.28;;;2.50;;
26951;SDS011;14507;52.418;13.398;2023-05-07T09:54:36;7.25;;;2.20;;
26951;SDS011;14507;52.418;13.398;2023-05-07T09:57:07;8.38;;;2.40;;
26951;SDS011;14507;52.418;13.398;2023-05-07T09:59:36;3.47;;;2.13;;
26951;SDS011;14507;52.418;13.398;2023-05-07T10:02:03;4.30;;;2.45;;
26951;SDS011;14507;52.418;13.398;2023-05-07T10:04:30;6.28;;;2.15;;
26951;SDS011;14507;52.418;13.398;2023-05-07T10:06:57;3.70;;;2.20;;
26951;SDS011;14507;52.418;13.398;2023-05-07T10:09:25;5.88;;;2.03;;
26951;SDS011;14507;52.418;13.398;2023-05-07T10:11:51;4.13;;;1.90;;
26951;SDS011;14507;52.418;13.398;2023-05-07T10:14:19;5.63;;;2.35;;
26951;SDS011;14507;52.418;13.398;2023-05-07T10:16:46;5.70;;;2.30;;
26951;SDS011;14507;52.418;13.398;2023-05-07T10:19:12;5.47;;;2.80;;
26951;SDS011;14507;52.418;13.398;2023-05-07T10:21:42;6.38;;;2.65;;
26951;SDS011;14507;52.418;13.398;2023-05-07T10:24:33;3.83;;;2.08;;
26951;SDS011;14507;52.418;13.398;2023-05-07T10:27:01;3.00;;;1.83;;
26951;SDS011;14507;52.418;13.398;2023-05-07T10:34:45;5.25;;;2.10;;
26951;SDS011;14507;52.418;13.398;2023-05-07T10:37:13;3.88;;;2.03;;
26951;SDS011;14507;52.418;13.398;2023-05-07T10:39:40;4.63;;;1.95;;
26951;SDS011;14507;52.418;13.398;2023-05-07T10:42:12;2.83;;;1.67;;
26951;SDS011;14507;52.418;13.398;2023-05-07T10:44:39;2.25;;;1.40;;
26951;SDS011;14507;52.418;13.398;2023-05-07T10:47:12;2.72;;;1.58;;
26951;SDS011;14507;52.418;13.398;2023-05-07T10:52:18;4.00;;;1.60;;
26951;SDS011;14507;52.418;13.398;2023-05-07T10:54:46;3.28;;;1.70;;
26951;SDS011;14507;52.418;13.398;2023-05-07T10:59:56;3.55;;;1.60;;
26951;SDS011;14507;52.418;13.398;2023-05-07T11:02:22;3.15;;;1.75;;
26951;SDS011;14507;52.418;13.398;2023-05-07T11:05:18;2.47;;;1.60;;
26951;SDS011;14507;52.418;13.398;2023-05-07T11:07:43;5.57;;;1.67;;
26951;SDS011;14507;52.418;13.398;2023-05-07T11:10:20;3.72;;;1.77;;
26951;SDS011;14507;52.418;13.398;2023-05-07T11:12:46;5.45;;;1.73;;
26951;SDS011;14507;52.418;13.398;2023-05-07T11:15:13;5.63;;;1.60;;
26951;SDS011;14507;52.418;13.398;2023-05-07T11:28:27;4.95;;;2.00;;
26951;SDS011;14507;52.418;13.398;2023-05-07T11:33:19;3.90;;;1.90;;
26951;SDS011;14507;52.418;13.398;2023-05-07T11:35:45;4.60;;;1.80;;
26951;SDS011;14507;52.418;13.398;2023-05-07T11:38:12;7.18;;;1.70;;
26951;SDS011;14507;52.418;13.398;2023-05-07T11:43:33;4.40;;;1.90;;
26951;SDS011;14507;52.418;13.398;2023-05-07T11:46:10;3.65;;;1.80;;
26951;SDS011;14507;52.418;13.398;2023-05-07T11:48:36;4.18;;;1.58;;
26951;SDS011;14507;52.418;13.398;2023-05-07T11:51:03;3.70;;;1.70;;
26951;SDS011;14507;52.418;13.398;2023-05-07T11:53:41;4.18;;;1.60;;
26951;SDS011;14507;52.418;13.398;2023-05-07T11:56:11;3.85;;;1.90;;
26951;SDS011;14507;52.418;13.398;2023-05-07T11:58:38;6.28;;;1.85;;
26951;SDS011;14507;52.418;13.398;2023-05-07T12:01:04;4.05;;;2.00;;
26951;SDS011;14507;52.418;13.398;2023-05-07T12:03:33;4.47;;;1.80;;
26951;SDS011;14507;52.418;13.398;2023-05-07T12:05:59;3.92;;;1.58;;
26951;SDS011;14507;52.418;13.398;2023-05-07T12:08:25;3.50;;;1.65;;
26951;SDS011;14507;52.418;13.398;2023-05-07T12:10:51;3.08;;;1.58;;
26951;SDS011;14507;52.418;13.398;2023-05-07T12:13:17;3.45;;;1.92;;
26951;SDS011;14507;52.418;13.398;2023-05-07T12:15:44;2.75;;;1.40;;
26951;SDS011;14507;52.418;13.398;2023-05-07T12:18:10;4.40;;;1.90;;
26951;SDS011;14507;52.418;13.398;2023-05-07T12:20:36;3.75;;;1.95;;
26951;SDS011;14507;52.418;13.398;2023-05-07T12:23:02;3.22;;;1.42;;
26951;SDS011;14507;52.418;13.398;2023-05-07T12:25:32;3.45;;;1.58;;
26951;SDS011;14507;52.418;13.398;2023-05-07T12:28:04;4.38;;;1.70;;
26951;SDS011;14507;52.418;13.398;2023-05-07T12:30:36;4.32;;;1.90;;
26951;SDS011;14507;52.418;13.398;2023-05-07T12:33:03;3.65;;;1.80;;
26951;SDS011;14507;52.418;13.398;2023-05-07T12:35:29;2.83;;;1.63;;
26951;SDS011;14507;52.418;13.398;2023-05-07T12:38:09;4.55;;;1.70;;
26951;SDS011;14507;52.418;13.398;2023-05-07T12:40:36;3.70;;;1.55;;
26951;SDS011;14507;52.418;13.398;2023-05-07T12:43:04;7.15;;;1.42;;
26951;SDS011;14507;52.418;13.398;2023-05-07T12:45:29;3.10;;;1.40;;
26951;SDS011;14507;52.418;13.398;2023-05-07T12:47:55;2.75;;;1.33;;
26951;SDS011;14507;52.418;13.398;2023-05-07T12:50:21;4.43;;;1.90;;
26951;SDS011;14507;52.418;13.398;2023-05-07T12:52:48;3.05;;;1.50;;
26951;SDS011;14507;52.418;13.398;2023-05-07T12:55:14;6.22;;;1.85;;
26951;SDS011;14507;52.418;13.398;2023-05-07T12:57:41;4.80;;;1.55;;
26951;SDS011;14507;52.418;13.398;2023-05-07T13:00:08;3.03;;;1.70;;
26951;SDS011;14507;52.418;13.398;2023-05-07T13:02:38;2.97;;;1.33;;
26951;SDS011;14507;52.418;13.398;2023-05-07T13:05:05;5.15;;;1.63;;
26951;SDS011;14507;52.418;13.398;2023-05-07T13:07:31;4.18;;;1.35;;
26951;SDS011;14507;52.418;13.398;2023-05-07T13:09:57;3.58;;;1.60;;
26951;SDS011;14507;52.418;13.398;2023-05-07T13:12:22;2.72;;;1.30;;
26951;SDS011;14507;52.418;13.398;2023-05-07T13:14:48;3.83;;;1.48;;
26951;SDS011;14507;52.418;13.398;2023-05-07T13:17:13;1.55;;;1.10;;
26951;SDS011;14507;52.418;13.398;2023-05-07T13:19:39;4.30;;;1.42;;
26951;SDS011;14507;52.418;13.398;2023-05-07T13:22:05;3.17;;;1.50;;
26951;SDS011;14507;52.418;13.398;2023-05-07T13:24:30;2.50;;;1.40;;
26951;SDS011;14507;52.418;13.398;2023-05-07T13:26:56;3.70;;;1.30;;
26951;SDS011;14507;52.418;13.398;2023-05-07T13:29:21;3.78;;;1.50;;
26951;SDS011;14507;52.418;13.398;2023-05-07T13:31:53;2.35;;;1.30;;
26951;SDS011;14507;52.418;13.398;2023-05-07T13:34:20;4.32;;;1.60;;
26951;SDS011;14507;52.418;13.398;2023-05-07T13:36:45;2.35;;;1.33;;
26951;SDS011;14507;52.418;13.398;2023-05-07T13:39:11;4.38;;;1.30;;
26951;SDS011;14507;52.418;13.398;2023-05-07T13:41:37;3.67;;;1.70;;
26951;SDS011;14507;52.418;13.398;2023-05-07T13:44:02;2.40;;;1.30;;
26951;SDS011;14507;52.418;13.398;2023-05-07T13:46:28;5.30;;;1.75;;
26951;SDS011;14507;52.418;13.398;2023-05-07T13:48:54;3.50;;;1.42;;
26951;SDS011;14507;52.418;13.398;2023-05-07T13:51:20;3.90;;;1.55;;
26951;SDS011;14507;52.418;13.398;2023-05-07T13:53:46;3.42;;;1.52;;
26951;SDS011;14507;52.418;13.398;2023-05-07T13:56:12;3.30;;;1.20;;
26951;SDS011;14507;52.418;13.398;2023-05-07T13:58:37;4.45;;;1.20;;
26951;SDS011;14507;52.418;13.398;2023-05-07T14:01:03;2.90;;;1.35;;
26951;SDS011;14507;52.418;13.398;2023-05-07T14:03:29;2.10;;;1.20;;
26951;SDS011;14507;52.418;13.398;2023-05-07T14:05:56;6.87;;;1.43;;
26951;SDS011;14507;52.418;13.398;2023-05-07T14:08:24;5.63;;;1.50;;
26951;SDS011;14507;52.418;13.398;2023-05-07T14:10:50;4.55;;;1.85;;
26951;SDS011;14507;52.418;13.398;2023-05-07T14:13:16;4.15;;;1.50;;
26951;SDS011;14507;52.418;13.398;2023-05-07T14:15:42;2.60;;;1.40;;
26951;SDS011;14507;52.418;13.398;2023-05-07T14:18:11;6.05;;;1.50;;
26951;SDS011;14507;52.418;13.398;2023-05-07T14:21:04;3.22;;;1.70;;
26951;SDS011;14507;52.418;13.398;2023-05-07T14:23:31;4.18;;;1.80;;
26951;SDS011;14507;52.418;13.398;2023-05-07T14:25:56;3.30;;;1.50;;
26951;SDS011;14507;52.418;13.398;2023-05-07T14:28:23;3.30;;;1.35;;
26951;SDS011;14507;52.418;13.398;2023-05-07T14:30:48;4.50;;;1.58;;
26951;SDS011;14507;52.418;13.398;2023-05-07T14:33:14;3.45;;;1.45;;
26951;SDS011;14507;52.418;13.398;2023-05-07T14:35:40;5.38;;;1.80;;
26951;SDS011;14507;52.418;13.398;2023-05-07T14:38:06;2.92;;;1.45;;
26951;SDS011;14507;52.418;13.398;2023-05-07T14:40:31;3.58;;;1.50;;
26951;SDS011;14507;52.418;13.398;2023-05-07T14:42:57;2.65;;;1.40;;
26951;SDS011;14507;52.418;13.398;2023-05-07T14:45:23;2.75;;;1.38;;
26951;SDS011;14507;52.418;13.398;2023-05-07T14:47:48;4.90;;;1.27;;